• Join FlightAware (Why Join?)
  • Login
  • US Flag 
06:58PM EST


 

Airport Tracker/Info


-or-


 

Live Flight TrackerFlight Track Log ✈ UPS1337 ✈ 05-Apr-2014 ✈ KRDU - KSDF

Flight Track Log - Related Links

Times and Time Zones

All times are in EDT time to prevent confusion due to time zone crossing. See the UPS1337 flight status page for this flight to view local times or setup timezone preferences in your user account.

Time Position Orientation Groundspeed Altitude Reporting Facility
EDT Latitude Longitude Course Direction KTS MPH feet Rate Location/Type
11:56PM 35.8731 -78.8039 240° Southwest 155 178 1,300  Level Washington Center
11:57PM 35.8581 -78.8211 223° Southwest 151 174 3,000 2,340 Climbing Washington Center
11:58PM 35.8378 -78.8717 244° Southwest 159 183 5,000 2,580 Climbing Washington Center
11:59PM 35.8397 -78.9536 272° West 199 229 8,400 2,940 Climbing Washington Center
12:00AM 35.9217 -79.0934 264° West  Level Estimated
12:00AM 35.8394 -79.0408 270° West 228 262 11,000  Level Washington Center
12:01AM 35.8692 -79.2065 240° Southwest  Level FlightAware Approximate
12:01AM 35.8383 -79.1483 269° West 276 318 13,000  Level Washington Center
12:02AM 35.8367 -79.2711 269° West 340 391 15,900 2,700 Climbing Washington Center
12:03AM 35.8231 -79.4697 265° West 363 418 19,800 2,640 Climbing Atlanta Center
12:04AM 35.8050 -79.6039 261° West 381 438 22,600 2,820 Climbing Atlanta Center
12:05AM 35.8114 -79.7267 274° West 381 438 25,500 2,640 Climbing Atlanta Center
12:06AM 35.8572 -79.8444 296° West 367 422 27,900 1,200 Climbing Atlanta Center
12:07AM 35.9003 -79.9475 297° West 374 430 28,000  Climbing Atlanta Center
12:08AM 35.9439 -80.0683 294° West 379 436 28,000  Level Atlanta Center
12:09AM 35.9875 -80.1869 294° West 379 436 28,000  Level Atlanta Center
12:10AM 36.0306 -80.2978 296° West 379 436 28,000  Level Atlanta Center
12:11AM 36.0803 -80.4292 295° West 374 430 28,000  Level Atlanta Center
12:12AM 36.1233 -80.5453 295° West 374 430 28,000  Level Atlanta Center
12:13AM 36.1658 -80.6517 296° West 374 430 28,000  Level Atlanta Center
12:14AM 36.2086 -80.7681 295° West 374 430 28,000  Level Atlanta Center
12:15AM 36.2514 -80.8847 294° West 374 430 28,000  Level Atlanta Center
12:16AM 36.2961 -81.0017 295° West 374 430 28,000  Level Atlanta Center
12:17AM 36.3364 -81.1161 294° West 374 430 28,000  Level Atlanta Center
12:18AM 36.3786 -81.2306 295° West 374 430 28,000  Level Atlanta Center
12:19AM 36.4208 -81.3425 295° West 374 430 28,000  Level Atlanta Center
12:20AM 36.4628 -81.4600 294° West 374 430 28,000  Level Atlanta Center
12:21AM 36.5028 -81.5747 293° West 374 430 28,000  Level Atlanta Center
12:22AM 36.5447 -81.6925 294° West 374 430 28,000  Level Atlanta Center
12:23AM 36.5844 -81.8075 293° West 366 421 28,000  Level Atlanta Center
12:24AM 36.6261 -81.9228 294° West 373 429 28,000  Level Atlanta Center
12:25AM 36.6492 -81.9822 296° West 367 422 28,000  Level Indianapolis Center
12:26AM 36.6900 -82.0975 294° West 366 421 28,000  Level Indianapolis Center
12:27AM 36.7308 -82.2125 294° West 364 419 28,000  Level Indianapolis Center
12:28AM 36.7714 -82.3281 294° West 364 419 28,000  Level Indianapolis Center
12:29AM 36.8119 -82.4439 294° West 364 419 28,000  Level Indianapolis Center
12:30AM 36.8597 -82.5800 294° West 366 421 28,000  Level Indianapolis Center
12:31AM 36.9003 -82.6967 294° West 366 421 28,000  Level Indianapolis Center
12:32AM 36.9403 -82.8122 293° West 366 421 28,000  Level Indianapolis Center
12:33AM 36.9789 -82.9242 293° West 366 421 28,000  Level Indianapolis Center
12:34AM 37.0183 -83.0394 293° West 366 421 28,000  Level Indianapolis Center
12:35AM 37.0581 -83.1553 293° West 365 420 28,000  Level Indianapolis Center
12:36AM 37.0978 -83.2714 293° West 364 419 28,000  Level Indianapolis Center
12:37AM 37.1372 -83.3875 293° West 363 418 28,000  Level Indianapolis Center
12:38AM 37.1764 -83.5033 293° West 362 417 28,000  Level Indianapolis Center
12:39AM 37.2156 -83.6197 293° West 362 417 28,000 -420 Level Indianapolis Center
12:40AM 37.2558 -83.7397 293° West 379 436 27,200 -1,080 Descending Indianapolis Center
12:41AM 37.2975 -83.8639 293° West 384 442 25,900 -1,500 Descending Indianapolis Center
12:42AM 37.3394 -83.9889 293° West 385 443 24,200 -1,740 Descending Indianapolis Center
12:43AM 37.3806 -84.1136 293° West 385 443 22,400 -1,980 Descending Indianapolis Center
12:44AM 37.4281 -84.2564 293° West 377 434 20,300 -2,040 Descending Indianapolis Center
12:45AM 37.4675 -84.3761 293° West 372 428 18,400 -1,800 Descending Indianapolis Center
12:46AM 37.5058 -84.4936 292° West 366 421 16,700 -1,440 Descending Indianapolis Center
12:52AM 37.7302 -85.0577 313° West 262 302 9,100 -1,440 Descending FlightAware ADS-B
12:53AM 37.7667 -85.1286 297° West 254 292 7,200 -1,140 Descending FlightAware ADS-B
12:57AM 37.9022 -85.4767 296° West 206 237 2,900 -840 Descending FlightAware ADS-B
12:58AM 37.9265 -85.5397 296° West 204 235 2,900  Level FlightAware ADS-B
12:59AM 37.9518 -85.6049 295° West 201 231 2,900  Level FlightAware ADS-B
01:00AM 37.9838 -85.6636 346° North 171 197 2,900 60 Level FlightAware ADS-B
01:01AM 38.0333 -85.6833 208° Southwest 155 178 3,100  Climbing Louisville TRACON
01:02AM 38.0389 -85.6807 346° North 155 178 2,900 -900 Descending FlightAware ADS-B
01:03AM 38.0804 -85.6951 345° North 143 165 2,100 -720 Descending FlightAware ADS-B
01:03AM 38.1119 -85.7057 345° North 119 137 1,500 -840 Descending FlightAware ADS-B
01:04AM 38.1741 -85.7365 North  Level Estimated
01:04AM 38.1179 -85.7079 346° North 125 144 1,100  Level FlightAware ADS-B
01:04AM 38.1500 -85.7167 North 120 138 1,000 -180 Descending Louisville TRACON
01:06AM 38.1667 -85.7333 208° Southwest  Level FlightAware Approximate
01:07AM 38.1741 -85.7365 208° Southwest  Level Estimated